createdAt,value
2019-01-25T05:35:37.863Z,42.93
2019-01-25T05:38:06.727Z,40.03
2019-01-25T05:44:16.199Z,39.80
2019-01-25T05:50:26.695Z,41.33
2019-01-25T05:52:55.163Z,44.63
2019-01-25T05:55:23.675Z,45.47
2019-01-25T05:57:56.878Z,46.03
2019-01-25T06:00:26.962Z,43.97
2019-01-25T06:02:55.406Z,45.77
2019-01-25T06:05:24.053Z,45.57
2019-01-25T06:07:52.490Z,45.20
2019-01-25T06:13:50.246Z,42.53
2019-01-25T06:16:18.860Z,43.50
2019-01-25T06:18:47.729Z,44.97
2019-01-25T06:21:16.280Z,43.30
2019-01-25T06:23:44.753Z,42.30
2019-01-25T06:26:14.018Z,48.97
2019-01-25T06:28:42.530Z,44.53
2019-01-25T06:31:12.377Z,41.80
2019-01-25T06:33:40.867Z,46.20
2019-01-25T06:36:09.427Z,44.20
2019-01-25T06:38:37.865Z,44.77
2019-01-25T06:44:35.851Z,47.27
2019-01-25T06:47:04.566Z,42.87
2019-01-25T06:49:33.076Z,47.13
2019-01-25T06:52:01.551Z,47.83
2019-01-25T06:54:30.124Z,46.63
2019-01-25T06:57:00.203Z,48.07
2019-01-25T06:59:30.289Z,46.37
2019-01-25T07:02:00.391Z,46.87
2019-01-25T07:04:28.885Z,45.63
2019-01-25T07:10:26.475Z,43.77
2019-01-25T07:12:55.122Z,43.03
2019-01-25T07:18:53.018Z,41.73
2019-01-25T07:21:21.578Z,43.90
2019-01-25T07:27:31.187Z,47.00
2019-01-25T07:29:59.630Z,44.67
2019-01-25T07:32:28.075Z,44.70
2019-01-25T07:38:25.445Z,43.37
2019-01-25T07:40:53.965Z,45.10
2019-01-25T07:43:22.415Z,45.57
2019-01-25T07:49:19.778Z,43.60
2019-01-25T07:51:48.293Z,49.13
2019-01-25T07:54:16.859Z,47.13
2019-01-25T07:56:46.289Z,49.50
2019-01-25T07:59:15.194Z,46.77
2019-01-25T08:01:43.920Z,49.40
2019-01-25T08:04:12.433Z,48.50
2019-01-25T08:06:40.930Z,51.40
2019-01-25T08:09:09.396Z,47.70
2019-01-25T08:11:37.867Z,49.83
2019-01-25T08:14:06.526Z,46.00
2019-01-25T08:16:35.162Z,49.50
2019-01-25T08:19:04.030Z,45.67
2019-01-25T08:21:32.608Z,52.03
2019-01-25T08:24:01.129Z,48.10
2019-01-25T08:26:29.931Z,49.37
2019-01-25T08:32:27.778Z,49.30
2019-01-25T08:34:56.352Z,48.93
2019-01-25T08:37:25.156Z,49.67
2019-01-25T08:39:53.949Z,44.23
2019-01-25T08:42:22.418Z,44.33
2019-01-25T08:44:50.851Z,47.80
2019-01-25T08:47:19.292Z,49.17
2019-01-25T08:49:47.845Z,56.87
2019-01-25T08:52:16.334Z,53.60
2019-01-25T08:54:44.949Z,48.03
2019-01-25T09:00:42.412Z,52.73
2019-01-25T09:03:10.887Z,48.30
2019-01-25T09:05:39.323Z,46.13
2019-01-25T09:08:07.771Z,49.77
2019-01-25T09:10:36.763Z,47.10
2019-01-25T09:13:05.207Z,51.77
2019-01-25T09:15:35.186Z,54.63
2019-01-25T09:21:32.546Z,52.83
2019-01-25T09:24:01.030Z,52.87
2019-01-25T09:26:29.466Z,48.87
2019-01-25T09:28:58.175Z,47.70
2019-01-25T09:34:55.605Z,48.67
2019-01-25T09:40:52.510Z,46.27
2019-01-25T09:43:21.411Z,46.53
2019-01-25T09:49:31.433Z,52.40
2019-01-25T09:52:00.042Z,50.43
2019-01-25T09:54:28.491Z,48.53
2019-01-25T10:00:40.561Z,57.00
2019-01-25T10:03:09.341Z,50.27
2019-01-25T10:05:38.014Z,49.57
2019-01-25T10:08:06.527Z,51.63
2019-01-25T10:10:35.307Z,47.13
2019-01-25T10:13:03.742Z,53.13
2019-01-25T10:15:32.191Z,50.33
2019-01-25T10:18:00.965Z,47.10
2019-01-25T10:24:10.575Z,50.57
2019-01-25T10:30:25.699Z,48.23
2019-01-25T10:36:35.580Z,54.43
2019-01-25T10:42:52.950Z,47.73
2019-01-25T10:45:30.950Z,42.93
2019-01-25T10:47:59.488Z,49.40
2019-01-25T10:54:09.246Z,47.07
2019-01-25T10:56:41.835Z,49.27
2019-01-25T10:59:07.872Z,55.23
2019-01-25T11:01:36.547Z,44.13
2019-01-25T11:04:05.426Z,45.97
2019-01-25T11:06:33.867Z,43.00
2019-01-25T11:12:31.043Z,46.33
2019-01-25T11:14:59.492Z,43.93
2019-01-25T11:17:27.951Z,42.23
2019-01-25T11:19:56.779Z,40.00
2019-01-25T11:25:55.319Z,41.93
2019-01-25T11:28:24.031Z,41.80
2019-01-25T11:30:52.471Z,40.17
2019-01-25T11:36:49.944Z,38.00
2019-01-25T11:39:18.559Z,36.10
2019-01-25T11:45:28.723Z,40.60
2019-01-25T11:47:58.674Z,43.73
2019-01-25T11:50:27.629Z,50.30
2019-01-25T11:52:56.092Z,46.50
2019-01-25T11:55:24.799Z,44.57
2019-01-25T12:01:21.704Z,47.60
2019-01-25T12:03:50.141Z,44.33
2019-01-25T12:06:18.614Z,44.07
2019-01-25T12:08:47.047Z,42.33
2019-01-25T12:11:15.492Z,47.17
2019-01-25T12:13:44.373Z,44.77
2019-01-25T12:16:16.162Z,43.63
2019-01-25T12:18:44.919Z,43.67
2019-01-25T12:21:14.286Z,42.23
2019-01-25T12:23:42.718Z,39.37
2019-01-25T12:26:11.211Z,44.63
2019-01-25T12:28:39.686Z,38.50
2019-01-25T12:31:08.216Z,43.60
2019-01-25T12:33:36.711Z,38.87
2019-01-25T12:36:05.340Z,40.00
2019-01-25T12:42:15.010Z,40.70
2019-01-25T12:48:25.009Z,39.40
2019-01-25T12:54:34.235Z,42.83
2019-01-25T13:00:44.240Z,41.33
2019-01-25T13:06:54.415Z,36.37
2019-01-25T13:09:22.850Z,35.07
2019-01-25T13:11:51.683Z,35.17
2019-01-25T13:14:20.315Z,35.30
2019-01-25T13:16:50.717Z,31.27
2019-01-25T13:22:48.022Z,33.40
2019-01-25T13:25:16.794Z,31.20
2019-01-25T13:27:45.672Z,33.97
2019-01-25T13:30:20.077Z,30.53
2019-01-25T13:32:48.588Z,31.43
2019-01-25T13:38:45.755Z,26.27
2019-01-25T13:41:14.230Z,24.50
2019-01-25T13:43:42.952Z,30.83
2019-01-25T13:46:11.385Z,29.43
2019-01-25T13:48:40.284Z,31.13
2019-01-25T13:51:09.023Z,26.73
2019-01-25T13:53:37.831Z,28.83
2019-01-25T13:56:06.919Z,28.57
2019-01-25T13:58:35.712Z,30.50
2019-01-25T14:01:04.215Z,26.10
2019-01-25T14:03:32.699Z,23.10
2019-01-25T14:06:01.576Z,24.23
2019-01-25T14:08:30.357Z,26.23
2019-01-25T14:14:28.092Z,24.70
2019-01-25T14:16:56.579Z,26.03
2019-01-25T14:19:25.024Z,23.53
2019-01-25T14:21:53.469Z,28.53
2019-01-25T14:27:50.728Z,32.37
2019-01-25T14:33:47.990Z,28.63
2019-01-25T14:39:44.702Z,25.23
2019-01-25T14:45:41.773Z,25.80
2019-01-25T14:48:10.353Z,23.30
2019-01-25T14:50:38.907Z,22.13
2019-01-25T14:56:48.578Z,22.00
2019-01-25T15:02:58.275Z,19.10
2019-01-25T15:05:27.066Z,18.67
2019-01-25T15:11:24.727Z,17.87
2019-01-25T15:13:53.564Z,18.50
2019-01-25T15:20:05.149Z,20.37
2019-01-25T15:26:15.074Z,18.47
2019-01-25T15:32:25.051Z,18.97
2019-01-25T15:34:53.490Z,19.43
2019-01-25T15:37:22.436Z,21.13
2019-01-25T15:39:51.048Z,19.53
2019-01-25T15:42:19.539Z,19.53
2019-01-25T15:44:48.017Z,16.40
2019-01-25T15:50:45.349Z,20.63
2019-01-25T15:53:13.830Z,18.23
2019-01-25T15:55:42.410Z,18.90
2019-01-25T16:01:40.177Z,18.83
2019-01-25T16:07:13.268Z,18.43
2019-01-25T16:09:41.730Z,17.30
2019-01-25T16:12:10.170Z,18.67
2019-01-25T16:18:07.926Z,21.57
2019-01-25T16:20:36.793Z,18.93
2019-01-25T16:26:46.234Z,22.57
2019-01-25T16:32:55.830Z,19.37
2019-01-25T16:35:24.722Z,25.53
2019-01-25T16:37:53.623Z,18.37
2019-01-25T16:43:50.115Z,21.43
2019-01-25T16:49:47.116Z,19.57
2019-01-25T16:55:45.059Z,21.70
2019-01-25T17:01:42.671Z,20.13
2019-01-25T17:07:40.423Z,23.13
2019-01-25T17:13:38.110Z,21.60
2019-01-25T17:19:35.327Z,22.37
2019-01-25T17:22:04.240Z,20.70
2019-01-25T17:28:13.943Z,25.80
2019-01-25T17:34:23.747Z,25.17
2019-01-25T17:36:52.188Z,22.93
2019-01-25T17:39:20.679Z,26.50
2019-01-25T17:41:49.158Z,32.83
2019-01-25T17:44:17.600Z,22.07
2019-01-25T17:46:46.030Z,22.63
2019-01-25T17:49:14.521Z,22.60
2019-01-25T17:51:43.079Z,20.87
2019-01-25T17:54:11.522Z,19.43
2019-01-25T18:00:22.562Z,19.87
2019-01-25T18:02:51.197Z,24.83
2019-01-25T18:09:01.748Z,27.63
2019-01-25T18:11:30.483Z,22.93
2019-01-25T18:17:28.195Z,30.10
2019-01-25T18:19:56.654Z,25.03
2019-01-25T18:22:25.170Z,24.70
2019-01-25T18:24:53.605Z,25.00
2019-01-25T18:27:22.085Z,26.33
2019-01-25T18:29:50.518Z,25.53
2019-01-25T18:32:18.950Z,27.83
2019-01-25T18:34:47.586Z,25.50
2019-01-25T18:37:16.015Z,24.97
2019-01-25T18:39:44.813Z,24.67
2019-01-25T18:42:13.353Z,27.63
2019-01-25T18:44:42.182Z,26.10
2019-01-25T18:47:10.682Z,25.53
2019-01-25T18:49:39.166Z,25.23
2019-01-25T18:52:07.956Z,26.90
2019-01-25T18:54:36.406Z,23.30
2019-01-25T18:57:05.382Z,27.30
2019-01-25T19:03:15.168Z,29.03
2019-01-25T19:05:44.269Z,27.93
2019-01-25T19:08:12.786Z,27.13
2019-01-25T19:10:41.268Z,26.90
2019-01-25T20:09:46.692Z,30.50
2019-01-25T20:15:21.841Z,28.87
2019-01-25T20:21:19.474Z,29.43
2019-01-25T20:23:48.319Z,28.67
2019-01-25T20:29:57.936Z,29.23
